Embu-Guacu, Brazil
Current Conditions -  °F | °C
As of 7:00 PM on Tuesday 21 Oct 2014 (Local Time) from SBSP Reporting Station
Broken Clouds Broken Clouds  
Wind Chill: 63°   Ceiling: 9000
Heat Index: 63°   Visibility: 6mi
Dew Point: 50°   Wind: 12mph
Humidity: 63%   Direction: 130°SE
Pressure: 30.18"   Gusts: NA
Location:  23.82°S, 46.8°W
Report Text: SBSP 212100Z 13010KT 9999 FEW035 BKN090 17/10 Q1022
Loading
Personal Weather Stations






























Interactive Weather Map
Tropical Storm Tracking
New forecast layout! Learn more

10-Day Weather Forecast

Advertisements
Track Severe Weather on mobile